createdAt,value
2019-01-13T00:41:57.121Z,36.40
2019-01-13T00:45:04.268Z,46.63
2019-01-13T00:48:12.680Z,41.10
2019-01-13T00:51:27.991Z,39.13
2019-01-13T00:54:23.371Z,26.70
2019-01-13T03:41:35.978Z,14.77
2019-01-13T04:25:32.052Z,10.67
2019-01-13T04:44:17.632Z,7.43
2019-01-13T05:00:25.764Z,6.90
2019-01-13T05:20:43.557Z,8.63
2019-01-13T07:07:17.528Z,34.90
2019-01-13T07:10:23.431Z,29.30
2019-01-13T07:13:14.915Z,32.40
2019-01-13T07:16:19.345Z,36.30
2019-01-13T07:19:08.585Z,33.47
2019-01-13T07:22:14.884Z,27.57
2019-01-13T07:25:04.003Z,22.33
2019-01-13T07:28:08.680Z,27.37
2019-01-13T07:30:56.394Z,28.33
2019-01-13T07:34:04.780Z,26.07
2019-01-13T07:36:52.632Z,33.23
2019-01-13T07:39:59.018Z,23.83
2019-01-13T07:42:47.139Z,22.93
2019-01-13T07:45:55.017Z,25.27
2019-01-13T07:51:50.852Z,16.60
2019-01-13T07:54:55.600Z,18.90
2019-01-13T07:57:43.831Z,15.60
2019-01-13T08:00:48.450Z,17.30
2019-01-13T08:03:36.444Z,22.97
2019-01-13T08:06:44.112Z,16.50
2019-01-13T08:09:32.020Z,15.90
2019-01-13T08:12:39.993Z,16.77
2019-01-13T08:15:27.906Z,18.97
2019-01-13T08:18:33.892Z,18.73
2019-01-13T08:21:22.976Z,14.80
2019-01-13T08:24:29.098Z,12.67
2019-01-13T08:27:23.358Z,12.63
2019-01-13T08:30:30.580Z,10.00
2019-01-13T08:33:20.077Z,14.73
2019-01-13T08:36:25.787Z,13.03
2019-01-13T08:39:14.061Z,16.90
2019-01-13T08:42:19.321Z,11.23
2019-01-13T08:45:10.514Z,17.97
2019-01-13T08:48:15.950Z,13.73
2019-01-13T08:51:05.106Z,12.30
2019-01-13T08:54:09.522Z,16.43
2019-01-13T08:56:57.627Z,13.43
2019-01-13T09:00:02.334Z,8.43
2019-01-13T09:02:50.597Z,9.73
2019-01-13T09:05:55.035Z,11.77
2019-01-13T09:08:44.536Z,11.97
2019-01-13T09:11:49.620Z,10.17
2019-01-13T09:14:38.891Z,10.97
2019-01-13T09:17:44.031Z,10.80
2019-01-13T09:20:51.860Z,12.47
2019-01-13T09:23:40.232Z,13.87
2019-01-13T09:26:50.777Z,9.07
2019-01-13T09:29:34.543Z,11.57
2019-01-13T09:32:39.711Z,6.97
2019-01-13T09:35:28.151Z,10.27
2019-01-13T09:38:32.954Z,12.17
2019-01-13T09:41:20.691Z,9.90
2019-01-13T09:44:28.327Z,14.00
2019-01-13T09:47:16.039Z,13.73
2019-01-13T09:50:20.384Z,9.43
2019-01-13T09:53:11.227Z,12.87
2019-01-13T09:56:15.901Z,18.77
2019-01-13T09:59:03.937Z,16.20
2019-01-13T10:02:08.520Z,13.20
2019-01-13T10:04:56.638Z,11.70
2019-01-13T10:08:01.468Z,10.83
2019-01-13T10:10:49.337Z,12.43
2019-01-13T10:13:54.146Z,10.30
2019-01-13T10:16:42.179Z,13.17
2019-01-13T10:19:46.830Z,13.00
2019-01-13T10:22:34.915Z,10.87
2019-01-13T10:25:39.688Z,12.70
2019-01-13T10:28:27.532Z,11.30
2019-01-13T10:31:32.198Z,12.67
2019-01-13T10:34:37.073Z,11.50
2019-01-13T10:37:24.936Z,13.13
2019-01-13T10:40:29.798Z,10.53
2019-01-13T10:43:17.860Z,11.23
2019-01-13T10:46:22.627Z,11.20
2019-01-13T10:49:10.447Z,12.47
2019-01-13T10:52:15.451Z,9.73
2019-01-13T10:55:03.555Z,9.43
2019-01-13T10:58:08.270Z,18.03
2019-01-13T11:00:56.031Z,9.10
2019-01-13T11:04:00.692Z,10.50
2019-01-13T11:06:48.717Z,10.00
2019-01-13T11:09:53.392Z,8.63
2019-01-13T11:12:41.427Z,8.37
2019-01-13T11:15:45.918Z,12.23
2019-01-13T11:18:33.783Z,12.60
2019-01-13T11:21:38.495Z,9.17
2019-01-13T11:24:26.283Z,10.27
2019-01-13T11:27:48.759Z,13.87
2019-01-13T11:30:36.946Z,8.40
2019-01-13T11:33:41.739Z,14.70
2019-01-13T11:36:29.955Z,8.03
2019-01-13T11:39:34.707Z,10.73
2019-01-13T11:42:22.690Z,16.93
2019-01-13T11:45:27.632Z,21.00
2019-01-13T11:48:15.515Z,12.30
2019-01-13T11:51:20.292Z,11.57
2019-01-13T11:54:08.138Z,11.83
2019-01-13T11:57:12.567Z,12.73
2019-01-13T12:00:17.480Z,12.60
2019-01-13T12:03:06.898Z,12.13
2019-01-13T12:06:11.806Z,12.27
2019-01-13T12:09:00.039Z,9.10
2019-01-13T12:12:07.230Z,6.97
2019-01-13T12:14:54.914Z,9.43
2019-01-13T12:17:59.322Z,8.13
2019-01-13T12:20:47.435Z,8.33
2019-01-13T12:23:52.108Z,8.00
2019-01-13T12:26:40.213Z,8.37
2019-01-13T12:29:44.913Z,8.73
2019-01-13T12:32:32.941Z,6.60
2019-01-13T12:35:37.800Z,7.50
2019-01-13T12:38:25.539Z,9.40
2019-01-13T12:41:30.263Z,7.80
2019-01-13T12:44:17.976Z,7.30
2019-01-13T12:50:23.663Z,8.53
2019-01-13T12:53:28.207Z,8.77
2019-01-13T12:56:16.322Z,7.17
2019-01-13T12:59:21.313Z,8.67
2019-01-13T13:02:09.169Z,7.13
2019-01-13T13:05:16.802Z,10.27
2019-01-13T13:08:04.999Z,9.13
2019-01-13T13:11:10.018Z,8.57
2019-01-13T13:13:58.078Z,7.93
2019-01-13T13:17:02.727Z,7.37
2019-01-13T13:19:50.902Z,8.37
2019-01-13T13:22:55.819Z,6.37
2019-01-13T13:25:43.604Z,8.13
2019-01-13T13:28:48.445Z,6.00
2019-01-13T13:31:36.311Z,8.97
2019-01-13T13:34:41.249Z,6.13
2019-01-13T13:37:29.344Z,6.60
2019-01-13T13:40:34.116Z,8.07
2019-01-13T13:43:21.913Z,7.03
2019-01-13T13:46:26.440Z,6.70
2019-01-13T13:49:17.354Z,10.00
2019-01-13T13:52:22.029Z,5.17
2019-01-13T13:55:09.987Z,4.57
2019-01-13T13:58:14.466Z,5.40
2019-01-13T14:01:02.410Z,4.90
2019-01-13T14:04:07.345Z,4.77
2019-01-13T14:06:55.617Z,5.53
2019-01-13T14:10:00.103Z,8.67
2019-01-13T14:12:52.130Z,7.27
2019-01-13T14:15:56.814Z,7.97
2019-01-13T14:18:47.787Z,7.53
2019-01-13T14:21:55.818Z,6.13
2019-01-13T14:24:44.205Z,11.13
2019-01-13T14:27:49.193Z,7.40
2019-01-13T14:30:54.255Z,11.47
2019-01-13T14:33:41.926Z,15.23
2019-01-13T14:36:46.588Z,16.93
2019-01-13T14:39:34.737Z,16.63
2019-01-13T14:42:40.881Z,13.53
2019-01-13T14:45:30.180Z,11.90
2019-01-13T14:48:36.777Z,9.63
2019-01-13T14:51:24.706Z,9.07
2019-01-13T14:54:29.205Z,10.00
2019-01-13T14:57:17.038Z,12.20
2019-01-13T15:00:23.401Z,13.10
2019-01-13T15:03:11.295Z,15.67
2019-01-13T15:06:16.187Z,13.40
2019-01-13T15:09:07.083Z,31.27
2019-01-13T15:12:11.627Z,18.33
2019-01-13T15:14:59.458Z,14.27
2019-01-13T15:18:04.446Z,12.33
2019-01-13T15:20:52.755Z,21.17
2019-01-13T15:23:57.276Z,13.87
2019-01-13T15:26:47.594Z,16.77
2019-01-13T15:29:52.236Z,12.97
2019-01-13T15:35:52.582Z,16.30
2019-01-13T15:38:57.001Z,13.70
2019-01-13T15:41:45.997Z,48.97
2019-01-13T15:44:50.689Z,62.33
2019-01-13T15:47:41.966Z,86.77
2019-01-13T15:50:46.824Z,68.40
2019-01-13T15:53:37.126Z,66.50
2019-01-13T15:56:41.941Z,70.07
2019-01-13T15:59:30.042Z,67.07
2019-01-13T16:02:34.450Z,70.67
2019-01-13T16:05:22.291Z,109.93
2019-01-13T16:08:27.248Z,57.63
2019-01-13T16:11:16.644Z,51.73
2019-01-13T16:14:21.392Z,57.47
2019-01-13T16:17:09.569Z,42.07
2019-01-13T16:20:14.552Z,43.37
2019-01-13T16:26:04.920Z,39.40
2019-01-13T16:29:09.826Z,37.53
2019-01-13T16:31:58.104Z,40.27
2019-01-13T16:35:03.909Z,40.63
2019-01-13T16:38:10.221Z,45.83
2019-01-13T16:40:59.455Z,53.20
2019-01-13T16:44:04.033Z,46.00
2019-01-13T16:46:52.061Z,52.57
2019-01-13T16:49:58.157Z,49.47
2019-01-13T16:52:46.029Z,40.30
2019-01-13T16:55:50.636Z,37.07
2019-01-13T16:58:39.602Z,34.97
2019-01-13T17:01:44.304Z,29.73
2019-01-13T17:04:32.216Z,24.00
2019-01-13T17:07:37.820Z,26.13
2019-01-13T17:10:26.121Z,24.13
2019-01-13T17:13:37.012Z,24.63
2019-01-13T17:16:25.910Z,24.97
2019-01-13T17:19:31.050Z,28.43
2019-01-13T17:22:22.260Z,29.83
2019-01-13T17:25:28.332Z,33.97
2019-01-13T17:28:16.541Z,27.77
2019-01-13T17:31:21.827Z,34.40
2019-01-13T17:37:15.151Z,29.57
2019-01-13T17:40:21.244Z,35.33
2019-01-13T17:43:10.610Z,41.10
2019-01-13T17:46:18.210Z,25.13
2019-01-13T17:49:06.461Z,33.67
2019-01-13T17:52:12.754Z,62.23
2019-01-13T17:55:01.071Z,64.10
2019-01-13T17:58:11.698Z,61.90
2019-01-13T18:01:02.423Z,44.30
2019-01-13T18:04:06.809Z,45.50
2019-01-13T18:06:55.930Z,39.77
2019-01-13T18:10:00.902Z,47.00
2019-01-13T18:13:05.762Z,36.10
2019-01-13T18:15:53.983Z,37.33
2019-01-13T18:18:58.841Z,42.50
2019-01-13T18:21:48.139Z,111.73
2019-01-13T18:25:01.654Z,116.70
2019-01-13T18:28:09.354Z,123.87
2019-01-13T18:31:03.719Z,118.57
2019-01-13T18:34:09.668Z,143.33
2019-01-13T18:37:10.692Z,245.10
2019-01-13T18:40:15.556Z,203.80
2019-01-13T18:43:06.947Z,164.73
2019-01-13T18:46:11.662Z,158.07
2019-01-13T18:49:19.491Z,162.23
2019-01-13T18:52:07.664Z,245.57
2019-01-13T18:55:12.516Z,242.90
2019-01-13T18:58:04.721Z,210.27
2019-01-13T19:01:09.792Z,227.27
2019-01-13T19:03:57.998Z,176.23
2019-01-13T19:07:06.599Z,141.13
2019-01-13T19:09:54.598Z,94.60
2019-01-13T19:13:01.114Z,117.20
2019-01-13T19:15:49.386Z,158.57
2019-01-13T19:19:00.330Z,114.37
2019-01-13T19:21:49.701Z,149.60
2019-01-13T19:24:57.692Z,158.80
2019-01-13T19:27:46.008Z,171.17
2019-01-13T19:30:50.728Z,144.00
2019-01-13T19:34:01.433Z,150.63
2019-01-13T19:36:49.589Z,151.47
2019-01-13T19:39:54.311Z,305.07
2019-01-13T19:42:42.466Z,259.70
2019-01-13T19:45:50.202Z,278.73
2019-01-13T19:48:55.757Z,320.90
2019-01-13T19:52:00.568Z,333.93
2019-01-13T19:54:51.617Z,297.87
2019-01-13T19:58:03.266Z,315.07
2019-01-13T20:00:51.307Z,338.53
2019-01-13T20:03:59.315Z,345.80
2019-01-13T20:06:47.329Z,385.53
2019-01-13T20:09:52.063Z,345.97
2019-01-13T20:12:57.972Z,299.20
2019-01-13T20:15:47.290Z,303.77
2019-01-13T20:18:56.375Z,271.23
2019-01-13T20:21:44.301Z,161.23
2019-01-13T20:24:49.179Z,148.30
2019-01-13T20:27:37.146Z,113.73
2019-01-13T20:30:41.928Z,116.63
2019-01-13T20:33:48.121Z,71.70
2019-01-13T20:36:52.985Z,83.50
2019-01-13T20:39:43.181Z,60.37
2019-01-13T20:42:48.450Z,55.90
2019-01-13T20:45:37.958Z,63.47
2019-01-13T20:48:42.825Z,61.43
2019-01-13T20:51:30.572Z,62.87
2019-01-13T20:54:36.609Z,68.80
2019-01-13T20:57:24.567Z,63.83
2019-01-13T21:00:36.533Z,74.17
2019-01-13T21:03:24.523Z,76.83
2019-01-13T21:06:33.574Z,89.23
2019-01-13T21:09:21.400Z,71.07
2019-01-13T21:12:32.695Z,58.47
2019-01-13T21:15:20.701Z,45.30
2019-01-13T21:18:26.583Z,46.10
2019-01-13T21:21:14.800Z,43.90
2019-01-13T21:24:20.788Z,42.33
2019-01-13T21:27:08.636Z,46.73
2019-01-13T21:30:19.472Z,42.37
2019-01-13T21:33:07.434Z,46.70
2019-01-13T21:36:12.477Z,43.53
2019-01-13T21:39:00.997Z,44.10
2019-01-13T21:42:05.815Z,59.93
2019-01-13T21:44:53.589Z,84.03
2019-01-13T21:50:59.640Z,110.40
2019-01-13T21:54:10.930Z,101.43
2019-01-13T21:57:00.852Z,99.33
2019-01-13T22:00:09.908Z,113.00
2019-01-13T22:02:58.242Z,107.80
2019-01-13T22:06:03.567Z,107.27
2019-01-13T22:08:56.075Z,130.13
2019-01-13T22:12:00.723Z,112.60
2019-01-13T22:14:48.852Z,121.43
2019-01-13T22:17:56.734Z,109.80
2019-01-13T22:20:44.678Z,90.37
2019-01-13T22:23:50.892Z,71.63
2019-01-13T22:26:38.993Z,69.87
2019-01-13T22:29:43.694Z,85.83
2019-01-13T22:32:34.693Z,64.73
2019-01-13T22:35:58.185Z,67.13
2019-01-13T22:38:28.593Z,64.63
2019-01-13T22:41:05.710Z,68.40
2019-01-13T22:43:41.817Z,69.67
2019-01-13T22:46:18.817Z,70.77
2019-01-13T22:48:49.205Z,79.83
2019-01-13T22:51:26.811Z,86.13
2019-01-13T22:53:59.744Z,83.23
2019-01-13T22:56:35.548Z,84.93
2019-01-13T22:59:22.177Z,74.10
2019-01-13T23:02:18.142Z,83.27
2019-01-13T23:04:48.523Z,77.23
2019-01-13T23:07:25.153Z,83.50
2019-01-13T23:09:55.552Z,84.77
2019-01-13T23:15:29.521Z,80.97
2019-01-13T23:18:06.345Z,85.73
